Time;durP1;ratioP1;P1;durP2;ratioP2;P2;SDS_P1;SDS_P2;PMS_P1;PMS_P2;Temp;Humidity;BMP_temperature;BMP_pressure;BME280_temperature;BME280_humidity;BME280_pressure;Samples;Min_cycle;Max_cycle;Signal;HPM_P1;HPM_P2
2021/05/04 00:02:01;;;;;;;13.60;2.38;;;;;;;8.61;83.92;98515.16;6251927;22;20311;-75
2021/05/04 00:04:26;;;;;;;10.00;2.78;;;;;;;8.66;84.63;98502.25;6254693;22;20095;-75
2021/05/04 00:06:55;;;;;;;10.25;2.33;;;;;;;8.65;84.02;98502.56;6203249;22;20299;-75
2021/05/04 00:09:21;;;;;;;13.68;3.33;;;;;;;8.67;84.41;98487.53;6232017;22;20026;-74
2021/05/04 00:11:46;;;;;;;8.35;1.60;;;;;;;8.67;83.40;98481.25;6229574;22;20395;-74
2021/05/04 00:14:12;;;;;;;20.33;4.53;;;;;;;8.68;83.89;98493.78;6274657;22;19983;-82
2021/05/04 00:16:40;;;;;;;9.48;2.00;;;;;;;8.74;83.34;98481.66;6276223;22;20031;-82
2021/05/04 00:19:19;;;;;;;;;;;;;;;;;;;;;
2021/05/04 00:22:06;;;;;;;6.65;2.38;;;;;;;8.84;83.73;98497.81;6293188;22;20006;-81
2021/05/04 00:24:44;;;;;;;;;;;;;;;;;;;;;
2021/05/04 00:27:10;;;;;;;15.90;2.72;;;;;;;8.74;83.19;98471.56;6289541;22;20004;-83
2021/05/04 00:29:39;;;;;;;9.23;2.08;;;;;;;8.86;83.12;98487.44;6245703;22;19991;-81
2021/05/04 00:32:07;;;;;;;12.45;2.63;;;;;;;8.79;83.58;98461.69;6298113;22;20056;-81
2021/05/04 00:34:39;;;;;;;6.68;2.03;;;;;;;8.93;84.11;98472.59;6272244;22;20007;-82
2021/05/04 00:37:07;;;;;;;9.65;2.20;;;;;;;8.89;83.41;98477.84;6269216;22;20008;-78
2021/05/04 00:39:40;;;;;;;16.88;3.28;;;;;;;8.78;82.82;98443.72;6245117;22;19995;-78
2021/05/04 00:42:14;;;;;;;18.73;2.83;;;;;;;8.64;82.12;98432.81;6259404;22;20090;-79
2021/05/04 00:44:40;;;;;;;14.80;2.40;;;;;;;8.81;82.79;98433.03;6261138;22;20141;-78
2021/05/04 00:47:06;;;;;;;22.25;3.08;;;;;;;8.71;83.06;98419.59;6235839;22;20525;-78
2021/05/04 00:49:31;;;;;;;11.15;3.15;;;;;;;8.70;82.79;98426.16;6258793;22;20011;-79
2021/05/04 00:51:57;;;;;;;13.65;2.05;;;;;;;8.87;82.90;98442.69;6260904;22;20069;-79
2021/05/04 00:54:31;;;;;;;14.18;2.08;;;;;;;8.79;82.47;98437.16;6285099;22;20011;-79
2021/05/04 00:56:59;;;;;;;8.30;2.50;;;;;;;8.82;82.82;98458.34;6283292;22;20027;-78
2021/05/04 00:59:28;;;;;;;9.50;2.00;;;;;;;8.83;82.68;98457.25;6285732;22;20004;-79
2021/05/04 01:02:07;;;;;;;13.00;2.00;;;;;;;8.78;82.08;98441.81;6258475;22;20047;-79
2021/05/04 01:04:45;;;;;;;7.78;1.75;;;;;;;8.76;82.25;98435.84;6260394;22;20000;-80
2021/05/04 01:07:10;;;;;;;10.35;1.75;;;;;;;8.67;82.90;98440.38;6259898;22;19995;-79
2021/05/04 01:09:48;;;;;;;;;;;;;;;;;;;;;
2021/05/04 01:12:14;;;;;;;12.68;1.42;;;;;;;8.71;83.11;98455.81;6260553;22;20027;-79
2021/05/04 01:14:42;;;;;;;15.15;2.40;;;;;;;8.56;83.09;98456.91;6283963;22;20019;-80
2021/05/04 01:17:07;;;;;;;15.77;2.22;;;;;;;8.40;83.90;98444.66;6254158;23;20023;-78
2021/05/04 01:19:33;;;;;;;14.18;2.17;;;;;;;8.47;84.68;98466.91;6255912;23;20004;-79
2021/05/04 01:22:12;;;;;;;13.77;1.70;;;;;;;8.46;84.19;98469.94;6231873;23;20078;-80
2021/05/04 01:24:54;;;;;;;12.43;2.53;;;;;;;8.40;84.71;98482.78;6261007;22;20075;-79
2021/05/04 01:27:27;;;;;;;9.93;2.58;;;;;;;8.16;85.81;98458.41;6245517;23;20019;-79
2021/05/04 01:30:05;;;;;;;11.02;2.33;;;;;;;8.26;85.68;98479.22;6247648;22;20047;-78
2021/05/04 01:32:33;;;;;;;11.07;1.98;;;;;;;8.23;86.15;98477.91;6226040;23;20077;-80
2021/05/04 01:34:59;;;;;;;22.75;2.35;;;;;;;8.12;86.49;98460.94;6179763;23;20081;-78
2021/05/04 01:37:25;;;;;;;10.32;2.08;;;;;;;8.02;85.51;98458.38;6233205;23;20024;-78
2021/05/04 01:39:51;;;;;;;6.07;1.92;;;;;;;8.14;86.14;98480.50;6238535;23;20020;-79
2021/05/04 01:42:19;;;;;;;27.35;2.75;;;;;;;8.06;85.73;98486.63;6234454;23;20019;-79
2021/05/04 01:44:45;;;;;;;17.30;2.63;;;;;;;7.95;85.72;98455.22;6226262;23;20004;-79
2021/05/04 01:47:11;;;;;;;15.77;2.17;;;;;;;7.94;85.05;98461.75;6225993;23;20000;-79
2021/05/04 01:49:43;;;;;;;16.67;2.55;;;;;;;8.09;86.39;98458.81;6227784;23;20004;-79
2021/05/04 01:52:12;;;;;;;15.10;1.90;;;;;;;8.06;85.67;98451.25;6232612;23;20020;-77
2021/05/04 01:54:48;;;;;;;;;;;;;;;;;;;;;
2021/05/04 01:57:14;;;;;;;9.95;1.80;;;;;;;8.15;84.51;98500.38;6223554;23;20020;-76
2021/05/04 01:59:40;;;;;;;7.65;1.75;;;;;;;8.25;85.94;98496.66;6196178;23;20038;-72
2021/05/04 02:02:08;;;;;;;8.43;1.02;;;;;;;8.27;85.27;98499.91;6223354;23;20009;-74
2021/05/04 02:04:33;;;;;;;12.77;1.52;;;;;;;8.29;85.31;98489.50;6224059;23;20013;-73
2021/05/04 02:07:13;;;;;;;;;;;;;;;;;;;;;
2021/05/04 02:09:39;;;;;;;13.45;2.60;;;;;;;8.12;85.22;98466.38;6219116;23;20038;-71
2021/05/04 02:12:05;;;;;;;11.13;1.80;;;;;;;8.17;86.10;98479.91;6220745;23;20004;-73
2021/05/04 02:14:30;;;;;;;13.57;2.05;;;;;;;8.08;85.39;98465.34;6219373;23;20317;-71
2021/05/04 02:16:56;;;;;;;7.68;1.65;;;;;;;8.11;85.98;98486.53;6218810;23;20005;-72
2021/05/04 02:19:22;;;;;;;13.55;2.42;;;;;;;8.10;85.88;98490.34;6192367;23;20016;-72
2021/05/04 02:21:48;;;;;;;14.15;2.30;;;;;;;8.09;85.56;98477.88;6195552;23;20655;-71
2021/05/04 02:24:13;;;;;;;11.75;1.80;;;;;;;8.19;85.79;98491.31;6201959;23;20004;-77
2021/05/04 02:26:39;;;;;;;19.02;2.17;;;;;;;8.19;86.29;98493.22;6198465;23;20015;-74
2021/05/04 02:29:04;;;;;;;14.57;1.58;;;;;;;8.19;86.17;98485.88;6222132;23;20074;-75
2021/05/04 02:31:29;;;;;;;16.00;2.47;;;;;;;8.18;85.86;98486.97;6217891;23;20088;-75
2021/05/04 02:33:55;;;;;;;11.95;2.03;;;;;;;8.31;86.54;98503.63;6221261;23;20004;-73
2021/05/04 02:36:21;;;;;;;10.30;2.17;;;;;;;8.33;86.08;98494.06;6221517;23;20065;-73
2021/05/04 02:38:46;;;;;;;23.35;2.85;;;;;;;8.14;85.14;98464.16;6217059;23;20004;-75
2021/05/04 02:41:12;;;;;;;10.77;2.08;;;;;;;8.27;85.68;98489.00;6227326;23;20008;-72
2021/05/04 02:43:38;;;;;;;16.35;2.58;;;;;;;8.16;85.85;98489.19;6236337;23;20014;-70
2021/05/04 02:46:08;;;;;;;8.27;2.10;;;;;;;8.12;86.22;98493.59;6231185;23;20001;-72
2021/05/04 02:48:42;;;;;;;8.63;1.90;;;;;;;8.09;86.45;98499.66;6218050;23;20054;-73
2021/05/04 02:51:09;;;;;;;7.15;2.05;;;;;;;8.06;87.03;98481.19;6218063;23;20011;-71
2021/05/04 02:53:36;;;;;;;8.00;1.50;;;;;;;8.03;86.92;98490.75;6220965;23;20000;-75
2021/05/04 02:56:03;;;;;;;12.02;2.05;;;;;;;7.99;86.04;98470.66;6195241;23;20031;-73
2021/05/04 02:58:28;;;;;;;15.35;2.90;;;;;;;8.02;86.67;98493.75;6217040;23;20008;-73
2021/05/04 03:00:55;;;;;;;8.27;1.42;;;;;;;7.98;86.29;98481.84;6220835;23;20028;-72
2021/05/04 03:03:21;;;;;;;15.82;2.17;;;;;;;7.97;85.80;98472.88;6220530;23;20022;-73
2021/05/04 03:05:47;;;;;;;20.33;2.47;;;;;;;7.88;85.66;98454.78;6220252;23;20028;-73
2021/05/04 03:08:12;;;;;;;8.38;1.17;;;;;;;8.00;85.37;98463.28;6219973;23;20012;-74
2021/05/04 03:10:40;;;;;;;14.70;1.60;;;;;;;7.96;86.55;98473.19;6218576;23;20039;-74
2021/05/04 03:13:06;;;;;;;11.95;2.42;;;;;;;7.94;85.95;98475.38;6218653;23;20004;-73
2021/05/04 03:15:37;;;;;;;13.00;1.73;;;;;;;7.93;85.92;98481.91;6218614;23;20015;-76
2021/05/04 03:18:02;;;;;;;12.10;1.73;;;;;;;7.96;86.00;98489.50;6219522;23;20001;-74
2021/05/04 03:20:28;;;;;;;16.17;1.52;;;;;;;7.98;86.84;98471.75;6221045;23;20043;-74
2021/05/04 03:22:56;;;;;;;12.40;2.72;;;;;;;7.89;86.73;98478.19;6228104;23;20011;-74
2021/05/04 03:25:21;;;;;;;9.40;1.52;;;;;;;7.72;87.27;98467.81;6201212;23;20001;-75
2021/05/04 03:27:47;;;;;;;25.80;3.88;;;;;;;7.71;87.38;98483.34;6207185;23;19998;-75
2021/05/04 03:30:13;;;;;;;7.55;1.30;;;;;;;7.68;87.34;98494.78;6232931;23;20424;-75
2021/05/04 03:32:42;;;;;;;14.02;1.73;;;;;;;7.55;88.84;98500.97;6207989;23;20013;-74
2021/05/04 03:35:19;;;;;;;;;;;;;;;;;;;;;
2021/05/04 03:37:46;;;;;;;3.70;1.15;;;;;;;7.39;88.44;98520.22;6225734;23;20027;-75
2021/05/04 03:40:12;;;;;;;6.10;1.95;;;;;;;7.29;88.66;98520.34;6224472;23;20001;-76
2021/05/04 03:42:38;;;;;;;15.15;1.85;;;;;;;7.23;88.78;98533.19;6198733;23;20493;-75
2021/05/04 03:45:08;;;;;;;11.73;1.42;;;;;;;7.19;88.88;98525.91;6199736;23;20020;-75
2021/05/04 03:47:36;;;;;;;7.43;1.65;;;;;;;7.26;88.10;98548.13;6198040;23;20013;-75
2021/05/04 03:50:03;;;;;;;5.85;1.75;;;;;;;7.16;87.84;98544.41;6200143;23;20019;-75
2021/05/04 03:52:31;;;;;;;5.18;0.68;;;;;;;7.08;87.15;98536.06;6220911;23;20012;-78
2021/05/04 03:54:56;;;;;;;13.27;1.38;;;;;;;7.15;87.37;98548.25;6226505;23;20007;-76
2021/05/04 03:57:24;;;;;;;8.07;1.33;;;;;;;7.10;86.66;98566.50;6213335;23;20075;-76
2021/05/04 03:59:53;;;;;;;15.40;1.55;;;;;;;7.08;85.60;98553.22;6223556;23;20062;-76
2021/05/04 04:02:28;;;;;;;;;;;;;;;;;;;;;
2021/05/04 04:05:01;;;;;;;9.45;1.00;;;;;;;7.04;83.12;98541.28;6229605;23;20020;-74
2021/05/04 04:07:29;;;;;;;10.43;1.67;;;;;;;6.81;82.03;98532.81;6235688;23;20001;-76
2021/05/04 04:09:55;;;;;;;5.78;1.10;;;;;;;6.96;81.73;98544.63;6237546;23;20004;-75
2021/05/04 04:12:29;;;;;;;2.30;0.50;;;;;;;6.82;80.32;98556.19;6228208;23;20035;-76
2021/05/04 04:15:16;;;;;;;5.00;1.00;;;;;;;6.95;79.11;98537.56;6222965;23;20028;-75
2021/05/04 04:17:43;;;;;;;4.13;0.82;;;;;;;6.89;80.27;98538.72;6223804;23;20011;-75
2021/05/04 04:20:09;;;;;;;13.57;0.75;;;;;;;6.86;79.53;98550.19;6224833;23;20021;-75
2021/05/04 04:22:38;;;;;;;9.02;0.80;;;;;;;6.78;78.91;98544.28;6223102;23;20001;-76
2021/05/04 04:25:08;;;;;;;4.78;0.50;;;;;;;6.87;79.16;98559.97;6222543;23;20016;-75
2021/05/04 04:27:45;;;;;;;0.82;0.40;;;;;;;6.79;78.01;98562.19;6224777;23;20043;-76
2021/05/04 04:30:11;;;;;;;0.65;0.38;;;;;;;6.70;78.99;98590.25;6241045;23;20012;-77
2021/05/04 04:32:44;;;;;;;5.55;0.68;;;;;;;6.68;79.21;98584.31;6252968;23;20012;-76
2021/05/04 04:35:10;;;;;;;5.10;0.80;;;;;;;6.66;78.37;98595.47;6251333;23;20020;-76
2021/05/04 04:37:40;;;;;;;6.30;0.70;;;;;;;6.54;79.25;98571.41;6253761;23;20043;-75
2021/05/04 04:40:07;;;;;;;6.43;1.05;;;;;;;6.66;78.60;98597.34;6250179;23;20027;-76
2021/05/04 04:42:33;;;;;;;2.10;0.40;;;;;;;6.70;78.36;98596.53;6227619;23;20027;-75
2021/05/04 04:45:09;;;;;;;;;;;;;;;;;;;;;
2021/05/04 04:47:34;;;;;;;6.97;0.80;;;;;;;6.76;77.57;98584.50;6254299;23;20027;-76
2021/05/04 04:50:08;;;;;;;4.38;0.85;;;;;;;6.60;77.12;98585.72;6225992;23;20011;-77
2021/05/04 04:52:34;;;;;;;3.22;0.57;;;;;;;6.46;77.08;98577.44;6225349;23;20117;-76
2021/05/04 04:55:01;;;;;;;3.45;0.77;;;;;;;6.57;76.04;98618.88;6227247;23;20008;-78
2021/05/04 04:57:27;;;;;;;3.13;0.47;;;;;;;6.61;76.87;98619.94;6223276;23;20005;-78
2021/05/04 04:59:55;;;;;;;2.45;0.30;;;;;;;6.50;75.94;98621.09;6199406;23;20014;-78
2021/05/04 05:02:22;;;;;;;5.78;0.82;;;;;;;6.55;76.13;98615.66;6204908;23;20012;-78
2021/05/04 05:04:51;;;;;;;9.73;0.98;;;;;;;6.60;76.56;98637.31;6202308;23;20024;-77
2021/05/04 05:07:16;;;;;;;3.03;0.45;;;;;;;6.55;75.96;98631.94;6203932;23;20000;-77
2021/05/04 05:09:52;;;;;;;;;;;;;;;;;;;;;
2021/05/04 05:12:23;;;;;;;5.25;0.65;;;;;;;6.49;75.95;98643.94;6255775;23;20133;-75
2021/05/04 05:14:48;;;;;;;3.00;0.45;;;;;;;6.54;75.96;98652.03;6248481;23;20064;-75
2021/05/04 05:17:24;;;;;;;;;;;;;;;;;;;;;
2021/05/04 05:20:00;;;;;;;2.13;0.40;;;;;;;6.50;76.25;98629.25;6249065;23;20020;-73
2021/05/04 05:22:44;;;;;;;2.90;0.60;;;;;;;6.66;76.25;98657.94;6252789;23;20034;-76
2021/05/04 05:25:10;;;;;;;13.50;0.90;;;;;;;6.57;75.42;98643.31;6255486;23;20012;-75
2021/05/04 05:27:46;;;;;;;;;;;;;;;;;;;;;
2021/05/04 05:30:24;;;;;;;1.67;0.50;;;;;;;6.90;75.08;98697.97;6255663;23;20032;-74
2021/05/04 05:32:54;;;;;;;1.38;0.60;;;;;;;6.96;74.83;98708.50;6254152;23;20060;-75
2021/05/04 05:35:20;;;;;;;11.02;0.80;;;;;;;6.99;76.01;98723.41;6256097;23;20008;-76
2021/05/04 05:37:45;;;;;;;2.85;0.65;;;;;;;6.95;74.80;98727.78;6257432;23;20010;-75
2021/05/04 05:40:11;;;;;;;5.15;0.70;;;;;;;6.99;74.69;98747.88;6206264;23;20062;-76
2021/05/04 05:42:37;;;;;;;1.70;0.75;;;;;;;7.01;74.15;98721.25;6230614;23;20008;-73
2021/05/04 05:45:03;;;;;;;0.80;0.40;;;;;;;7.06;75.26;98729.34;6256922;23;20027;-73
2021/05/04 05:47:31;;;;;;;3.17;0.70;;;;;;;7.03;75.21;98729.91;6250898;23;20063;-74
2021/05/04 05:49:59;;;;;;;5.97;1.00;;;;;;;7.08;75.30;98732.59;6258930;23;20062;-77
2021/05/04 05:52:37;;;;;;;4.90;0.80;;;;;;;7.18;74.80;98725.44;6229473;23;20101;-78
2021/05/04 05:55:02;;;;;;;3.03;0.95;;;;;;;7.29;74.77;98740.59;6233767;23;20007;-78
2021/05/04 05:57:31;;;;;;;5.88;0.85;;;;;;;7.18;73.82;98736.34;6230367;23;20072;-76
2021/05/04 05:59:58;;;;;;;4.32;0.52;;;;;;;7.32;73.67;98759.06;6231879;23;20008;-76
2021/05/04 06:02:24;;;;;;;4.15;1.13;;;;;;;7.29;74.60;98740.59;6255083;23;20008;-76
2021/05/04 06:04:51;;;;;;;4.38;0.60;;;;;;;7.39;73.74;98754.09;6228148;23;20073;-76
2021/05/04 06:07:19;;;;;;;1.98;0.45;;;;;;;7.42;73.14;98750.00;6229965;23;20004;-79
2021/05/04 06:09:48;;;;;;;4.97;0.50;;;;;;;7.57;72.73;98782.47;6231071;23;20000;-77
2021/05/04 06:12:16;;;;;;;2.50;0.40;;;;;;;7.61;72.38;98780.00;6230428;23;20035;-78
2021/05/04 06:14:45;;;;;;;2.28;0.52;;;;;;;7.47;72.53;98767.06;6231434;23;20008;-75
2021/05/04 06:17:20;;;;;;;0.73;0.52;;;;;;;7.60;71.37;98776.47;6254389;23;20319;-74
2021/05/04 06:19:55;;;;;;;8.40;1.08;;;;;;;7.72;72.53;98803.28;6231557;23;20011;-75
2021/05/04 06:22:36;;;;;;;;;;;;;;;;;;;;;
2021/05/04 06:25:10;;;;;;;4.72;0.47;;;;;;;7.70;71.48;98775.56;6232899;23;20044;-77
2021/05/04 06:27:36;;;;;;;1.90;1.02;;;;;;;7.81;72.28;98809.75;6229025;23;19996;-77
2021/05/04 06:30:18;;;;;;;;;;;;;;;;;;;;;
2021/05/04 06:33:09;;;;;;;4.68;0.90;;;;;;;7.94;72.03;98815.59;6226779;23;20465;-77
2021/05/04 06:35:48;;;;;;;;;;;;;;;;;;;;;
2021/05/04 06:38:45;;;;;;;6.35;0.63;;;;;;;7.95;71.38;98830.84;6225772;23;20008;-77
2021/05/04 06:41:39;;;;;;;8.77;0.60;;;;;;;7.93;71.40;98819.41;6222543;23;20012;-77
2021/05/04 06:44:08;;;;;;;1.40;0.52;;;;;;;8.30;71.12;98848.69;6221979;23;19997;-77
2021/05/04 06:46:43;;;;;;;6.07;1.10;;;;;;;8.34;70.59;98870.75;6224708;23;20008;-76
2021/05/04 06:49:38;;;;;;;;;;;;;;;;;;;;;
2021/05/04 06:52:04;;;;;;;8.70;1.80;;;;;;;8.69;69.96;98888.59;6222884;23;20032;-80
2021/05/04 06:54:31;;;;;;;4.55;0.68;;;;;;;8.78;69.58;98877.06;6225047;23;20035;-80
2021/05/04 06:56:57;;;;;;;1.60;0.90;;;;;;;8.89;69.59;98864.91;6227268;23;20013;-79
2021/05/04 06:59:38;;;;;;;8.02;0.93;;;;;;;8.87;67.46;98861.69;6222676;23;20001;-82
2021/05/04 07:02:33;;;;;;;2.15;0.40;;;;;;;8.90;66.80;98880.97;6206206;23;20498;-81
2021/05/04 07:05:01;;;;;;;2.58;0.68;;;;;;;8.79;68.13;98887.69;6173260;23;20034;-78
2021/05/04 07:07:34;;;;;;;1.65;0.35;;;;;;;8.77;67.27;98911.66;6224552;23;20434;-77
2021/05/04 07:10:01;;;;;;;1.42;0.35;;;;;;;8.76;66.66;98907.34;6226883;23;20004;-79
2021/05/04 07:12:27;;;;;;;3.88;0.80;;;;;;;8.79;67.84;98893.13;6224386;23;20012;-79
2021/05/04 07:14:58;;;;;;;5.43;0.50;;;;;;;8.88;66.82;98901.47;6225717;23;20083;-79
2021/05/04 07:17:26;;;;;;;2.92;0.55;;;;;;;8.96;68.02;98908.19;6224895;23;20001;-80
2021/05/04 07:19:55;;;;;;;2.40;0.43;;;;;;;8.92;67.57;98886.13;6225022;23;19997;-77
2021/05/04 07:22:34;;;;;;;4.18;1.13;;;;;;;9.18;67.57;98930.22;6223098;23;20072;-77
2021/05/04 07:25:00;;;;;;;7.28;1.00;;;;;;;9.10;66.97;98920.00;6222945;23;20000;-77
2021/05/04 07:27:28;;;;;;;5.18;0.65;;;;;;;9.24;66.19;98926.34;6221533;23;20050;-77
2021/05/04 07:29:53;;;;;;;5.40;1.13;;;;;;;9.09;67.40;98934.72;6231415;23;20024;-78
2021/05/04 07:32:26;;;;;;;1.85;0.60;;;;;;;9.05;67.03;98900.97;6246687;23;20351;-78
2021/05/04 07:35:02;;;;;;;6.18;0.95;;;;;;;9.08;67.40;98903.94;6222723;23;20005;-78
2021/05/04 07:37:30;;;;;;;5.22;1.27;;;;;;;9.36;66.77;98944.19;6224614;23;19997;-79
2021/05/04 07:39:57;;;;;;;14.05;1.50;;;;;;;9.32;65.80;98929.53;6230718;23;20004;-77
2021/05/04 07:42:23;;;;;;;6.28;0.52;;;;;;;9.54;66.04;98932.47;6232614;23;20011;-78
2021/05/04 07:44:48;;;;;;;1.88;0.63;;;;;;;9.75;65.92;98957.56;6226817;23;20005;-78
2021/05/04 07:47:14;;;;;;;3.15;0.55;;;;;;;9.76;64.95;98963.81;6233687;23;19985;-77
2021/05/04 07:49:44;;;;;;;6.90;1.15;;;;;;;9.67;64.49;98971.88;6233394;23;20013;-76
2021/05/04 07:52:18;;;;;;;6.15;0.60;;;;;;;9.78;64.26;98977.97;6254368;22;20009;-78
2021/05/04 07:54:44;;;;;;;4.22;1.05;;;;;;;9.76;63.79;98991.13;6226489;23;20005;-77
2021/05/04 07:57:09;;;;;;;0.55;0.20;;;;;;;9.75;62.94;99014.06;6212265;23;20012;-78
2021/05/04 07:59:35;;;;;;;1.65;0.55;;;;;;;9.55;62.90;98980.50;6219716;23;20723;-78
2021/05/04 08:02:02;;;;;;;2.67;0.60;;;;;;;9.59;64.88;98997.91;6212500;23;20036;-77
2021/05/04 08:04:28;;;;;;;6.82;0.77;;;;;;;9.56;62.91;98992.22;6222050;23;20323;-77
2021/05/04 08:06:56;;;;;;;1.48;0.40;;;;;;;9.51;64.96;99001.28;6217910;23;20004;-77
2021/05/04 08:09:22;;;;;;;0.73;0.43;;;;;;;9.49;63.75;99008.97;6244676;23;20388;-77
2021/05/04 08:11:47;;;;;;;2.75;0.75;;;;;;;9.46;64.81;99004.06;6217027;23;20020;-77
2021/05/04 08:14:13;;;;;;;1.63;0.50;;;;;;;9.55;64.14;99013.25;6220500;23;20309;-78
2021/05/04 08:16:39;;;;;;;3.75;0.77;;;;;;;9.66;63.79;99002.19;6218459;23;20015;-77
2021/05/04 08:19:05;;;;;;;12.52;0.90;;;;;;;9.82;63.33;99010.97;6215745;23;20009;-77
2021/05/04 08:21:34;;;;;;;2.75;0.82;;;;;;;10.09;62.82;99011.09;6216876;23;20074;-78
2021/05/04 08:24:01;;;;;;;4.43;0.60;;;;;;;10.18;62.09;99008.50;6215832;23;20080;-77
2021/05/04 08:26:27;;;;;;;2.05;0.75;;;;;;;10.23;62.11;99027.53;6242323;23;20007;-78
2021/05/04 08:28:56;;;;;;;1.98;0.77;;;;;;;10.23;61.17;99033.00;6214988;23;20012;-77
2021/05/04 08:31:24;;;;;;;3.97;0.60;;;;;;;10.20;60.41;99069.09;6222457;23;20015;-78
2021/05/04 08:33:50;;;;;;;2.63;0.77;;;;;;;10.29;60.70;99064.59;6223306;23;20019;-78
2021/05/04 08:36:19;;;;;;;2.40;0.70;;;;;;;10.28;61.26;99032.91;6221522;23;20015;-79
2021/05/04 08:38:49;;;;;;;4.97;1.45;;;;;;;10.29;60.26;99020.88;6223153;23;20010;-77
2021/05/04 08:41:16;;;;;;;1.60;0.57;;;;;;;10.38;60.14;99036.63;6224859;23;20004;-78
2021/05/04 08:43:49;;;;;;;3.75;1.25;;;;;;;10.52;61.45;99029.28;6214972;23;20304;-78
2021/05/04 08:46:19;;;;;;;5.72;0.75;;;;;;;10.58;60.91;99062.81;6249686;23;20008;-77
2021/05/04 08:48:45;;;;;;;10.75;0.98;;;;;;;10.54;60.96;99062.59;6222696;23;20004;-78
2021/05/04 08:51:12;;;;;;;10.25;1.10;;;;;;;10.68;61.04;99059.09;6218792;23;20019;-77
2021/05/04 08:53:37;;;;;;;3.47;0.93;;;;;;;10.80;61.40;99041.06;6221774;23;20449;-77
2021/05/04 08:56:03;;;;;;;1.35;0.47;;;;;;;11.06;60.24;99064.41;6221895;23;20003;-79
2021/05/04 08:58:31;;;;;;;8.48;1.52;;;;;;;11.06;60.11;99069.91;6245547;23;20377;-77
2021/05/04 09:00:57;;;;;;;4.35;1.15;;;;;;;11.27;59.84;99092.19;6251033;23;20038;-76
2021/05/04 09:03:37;;;;;;;8.65;1.17;;;;;;;11.34;59.55;99084.41;6223557;23;20004;-78
2021/05/04 09:19:54;;;;;;;1.40;0.80;;;;;;;11.25;59.79;99111.66;6259065;23;20019;-76
2021/05/04 09:22:49;;;;;;;5.13;0.90;;;;;;;11.25;59.67;99111.66;6225887;23;20693;-77
2021/05/04 09:25:35;;;;;;;3.53;0.82;;;;;;;11.21;60.47;99098.88;6175865;23;20004;-78
2021/05/04 09:28:12;;;;;;;;;;;;;;;11.57;58.69;99120.91;6225805;23;20058;-78
2021/05/04 09:30:38;;;;;;;9.07;0.70;;;;;;;11.84;57.37;99141.16;6243878;23;19915;-78
2021/05/04 09:33:08;;;;;;;2.13;1.02;;;;;;;11.92;55.53;99129.50;6250956;23;20015;-78
2021/05/04 09:35:35;;;;;;;4.63;0.70;;;;;;;11.99;56.19;99137.34;6225130;23;20008;-76
2021/05/04 09:38:05;;;;;;;1.52;0.80;;;;;;;11.96;56.53;99136.03;6224182;23;20103;-77
2021/05/04 09:40:34;;;;;;;4.07;0.90;;;;;;;11.83;55.14;99126.66;6249219;23;20004;-77
2021/05/04 09:43:03;;;;;;;1.50;0.60;;;;;;;11.76;57.04;99150.09;6226680;23;20010;-76
2021/05/04 09:45:30;;;;;;;3.70;1.20;;;;;;;11.61;56.07;99152.03;6221064;23;20015;-77
2021/05/04 09:48:08;;;;;;;3.97;1.20;;;;;;;12.18;55.16;99153.66;6226051;23;20078;-77
2021/05/04 09:50:54;;;;;;;1.00;0.70;;;;;;;12.39;53.29;99154.78;6223164;23;20557;-77
2021/05/04 09:56:32;;;;;;;3.03;0.95;;;;;;;12.70;54.06;99159.56;6128847;23;20495;-78
2021/05/04 09:58:58;;;;;;;1.38;0.57;;;;;;;13.17;49.64;99177.63;6234499;23;20012;-77
2021/05/04 10:01:23;;;;;;;1.30;0.45;;;;;;;13.92;49.21;99153.91;6222832;23;20100;-77
2021/05/04 10:03:52;;;;;;;2.13;0.93;;;;;;;14.76;46.60;99159.38;6252000;23;20058;-78
2021/05/04 10:06:20;;;;;;;1.00;0.47;;;;;;;15.19;46.93;99155.72;6246718;23;20120;-77
2021/05/04 10:08:47;;;;;;;1.33;0.65;;;;;;;15.28;45.56;99163.16;6223454;23;20026;-76
2021/05/04 10:11:19;;;;;;;1.23;0.70;;;;;;;15.04;44.60;99161.78;6221974;23;20012;-77
2021/05/04 10:13:47;;;;;;;0.55;0.38;;;;;;;15.47;44.04;99174.59;6251119;23;20027;-77
2021/05/04 10:16:13;;;;;;;0.77;0.43;;;;;;;15.34;44.58;99172.88;6223320;23;20007;-76
2021/05/04 10:18:39;;;;;;;1.92;0.50;;;;;;;15.38;45.23;99175.78;6222123;23;20016;-78
2021/05/04 10:21:08;;;;;;;5.15;0.73;;;;;;;15.86;44.19;99180.16;6225820;23;20012;-78
2021/05/04 10:23:36;;;;;;;1.92;0.43;;;;;;;16.47;41.63;99179.78;6214609;23;20004;-77
2021/05/04 10:26:05;;;;;;;0.60;0.52;;;;;;;16.08;41.09;99179.06;6252670;23;20008;-77
2021/05/04 10:28:34;;;;;;;2.28;0.40;;;;;;;15.77;42.90;99196.72;6252182;23;20031;-78
2021/05/04 10:31:07;;;;;;;4.10;0.47;;;;;;;15.49;42.85;99199.06;6262668;23;20714;-77
2021/05/04 10:33:40;;;;;;;1.05;0.52;;;;;;;15.53;42.68;99181.53;6230690;23;20064;-77
2021/05/04 10:36:35;;;;;;;1.67;0.52;;;;;;;15.72;43.08;99199.63;6232404;23;20337;-77
2021/05/04 10:39:03;;;;;;;3.80;0.82;;;;;;;15.92;40.62;99205.59;6254077;23;20281;-77
2021/05/04 10:41:28;;;;;;;2.60;0.60;;;;;;;16.26;40.75;99206.53;6228032;23;20015;-77
2021/05/04 10:44:05;;;;;;;1.00;0.50;;;;;;;16.24;38.66;99187.56;6217261;23;20075;-76
2021/05/04 10:46:37;;;;;;;3.38;0.57;;;;;;;15.96;38.21;99214.78;6230090;23;20004;-77
2021/05/04 10:49:03;;;;;;;0.77;0.40;;;;;;;16.12;39.11;99218.63;6257950;23;20088;-77
2021/05/04 10:51:47;;;;;;;2.13;0.80;;;;;;;17.25;37.12;99244.59;6257660;23;20008;-77
2021/05/04 10:54:34;;;;;;;1.10;0.47;;;;;;;18.10;34.68;99213.91;6217720;23;20030;-76
2021/05/04 10:57:01;;;;;;;1.98;0.77;;;;;;;18.37;33.76;99222.66;6247503;23;20012;-77
2021/05/04 10:59:27;;;;;;;4.28;0.60;;;;;;;18.30;34.58;99242.63;6245524;23;20024;-76
2021/05/04 11:02:08;;;;;;;3.10;1.60;;;;;;;18.04;33.78;99227.16;6252415;23;20023;-77
2021/05/04 11:04:45;;;;;;;5.53;1.58;;;;;;;16.90;36.20;99230.31;6222939;23;20107;-77
2021/05/04 11:07:10;;;;;;;3.63;1.15;;;;;;;17.05;37.09;99248.19;6225290;23;19992;-77
2021/05/04 11:09:39;;;;;;;1.38;0.77;;;;;;;17.83;35.92;99268.72;6251293;23;20008;-77
2021/05/04 11:12:09;;;;;;;4.35;0.85;;;;;;;18.13;32.98;99246.41;6222049;23;20431;-78
2021/05/04 11:14:40;;;;;;;1.52;0.80;;;;;;;17.92;34.66;99229.94;6223794;23;20504;-77
2021/05/04 11:17:16;;;;;;;6.35;1.35;;;;;;;18.10;34.68;99247.91;6223863;23;20494;-78
2021/05/04 11:19:45;;;;;;;3.55;1.23;;;;;;;17.16;34.97;99251.38;6219572;23;20027;-78
2021/05/04 11:22:18;;;;;;;1.67;0.80;;;;;;;16.97;36.24;99235.25;6219622;23;20054;-79
2021/05/04 11:24:47;;;;;;;7.72;1.38;;;;;;;17.23;35.89;99249.66;6220203;23;20023;-78
2021/05/04 11:27:13;;;;;;;3.50;1.10;;;;;;;16.66;36.12;99248.31;6248709;23;20095;-78
2021/05/04 11:29:42;;;;;;;1.48;0.93;;;;;;;16.15;38.40;99273.13;6249548;23;20012;-78
2021/05/04 11:32:38;;;;;;;1.77;0.82;;;;;;;17.00;37.94;99240.94;6225039;23;20008;-78
2021/05/04 11:35:06;;;;;;;3.50;0.50;;;;;;;17.35;35.27;99250.88;6221130;23;20399;-77
2021/05/04 11:37:43;;;;;;;1.40;0.73;;;;;;;16.98;35.41;99254.28;6244772;23;20004;-78
2021/05/04 11:40:16;;;;;;;4.15;0.95;;;;;;;17.32;35.63;99262.56;6249227;23;20004;-76
2021/05/04 11:43:00;;;;;;;3.53;1.20;;;;;;;18.03;33.68;99271.78;6248028;23;20511;-78
2021/05/04 11:45:28;;;;;;;2.95;0.90;;;;;;;18.55;32.52;99257.22;6218966;23;20004;-77
2021/05/04 11:47:56;;;;;;;5.75;1.73;;;;;;;18.91;30.64;99288.81;6223723;23;20087;-77
2021/05/04 11:50:31;;;;;;;5.13;1.02;;;;;;;18.94;31.49;99278.97;6221154;23;20015;-78
2021/05/04 11:53:04;;;;;;;;;;;;;;;19.60;29.73;99266.59;6224997;23;20026;-79
2021/05/04 11:55:37;;;;;;;12.40;1.20;;;;;;;19.18;31.48;99262.28;6249169;23;20401;-78
2021/05/04 11:58:07;;;;;;;4.13;0.80;;;;;;;18.78;31.76;99265.06;6221520;23;20304;-77
2021/05/04 12:00:38;;;;;;;4.90;0.82;;;;;;;18.79;30.85;99277.72;6222642;23;20423;-78
2021/05/04 12:03:08;;;;;;;2.28;0.80;;;;;;;19.12;30.08;99277.56;6251332;23;20004;-76
2021/05/04 12:05:56;;;;;;;3.05;0.90;;;;;;;19.44;30.44;99268.56;6221059;23;20015;-76
2021/05/04 12:08:27;;;;;;;2.08;1.00;;;;;;;19.30;29.18;99294.72;6226496;23;20030;-78
2021/05/04 12:10:59;;;;;;;3.20;1.23;;;;;;;17.88;31.33;99243.59;6243768;23;20007;-79
2021/05/04 12:13:28;;;;;;;2.83;0.60;;;;;;;18.07;33.57;99236.75;6263517;23;20007;-79
2021/05/04 12:15:57;;;;;;;3.03;1.00;;;;;;;19.41;31.49;99250.66;6267180;23;20019;-79
2021/05/04 12:18:41;;;;;;;4.38;0.55;;;;;;;20.08;30.21;99252.00;6270013;23;20099;-78
2021/05/04 12:21:10;;;;;;;1.27;0.88;;;;;;;20.11;29.57;99270.72;6242601;23;20023;-79
2021/05/04 12:23:43;;;;;;;10.18;0.77;;;;;;;19.46;30.40;99280.06;6268677;23;19992;-77
2021/05/04 12:26:22;;;;;;;7.15;1.20;;;;;;;19.69;30.36;99264.47;6270191;22;19999;-77
2021/05/04 12:28:51;;;;;;;3.40;0.95;;;;;;;19.94;27.80;99289.31;6250678;23;20004;-78